createdAt,value
2018-08-13T00:01:02.110Z,89.3
2018-08-13T00:02:09.364Z,85.8
2018-08-13T00:03:16.583Z,92.2
2018-08-13T00:04:23.539Z,90.1
2018-08-13T00:05:30.758Z,89.2
2018-08-13T00:06:37.985Z,82.9
2018-08-13T00:07:45.205Z,75.9
2018-08-13T00:08:52.155Z,80.4
2018-08-13T00:09:59.101Z,90.9
2018-08-13T00:11:06.327Z,92.8
2018-08-13T00:12:13.562Z,94.3
2018-08-13T00:13:20.810Z,95.3
2018-08-13T00:14:28.012Z,96.4
2018-08-13T00:15:34.957Z,92.1
2018-08-13T00:16:42.175Z,89.9
2018-08-13T00:17:49.416Z,92.1
2018-08-13T00:18:56.355Z,92.4
2018-08-13T00:20:03.576Z,92.4
2018-08-13T00:21:10.822Z,92.6
2018-08-13T00:22:18.043Z,94
2018-08-13T00:23:25.280Z,80.8
2018-08-13T00:24:32.510Z,96.9
2018-08-13T00:25:39.767Z,98.7
2018-08-13T00:26:47.013Z,99.9
2018-08-13T00:27:54.237Z,99.2
2018-08-13T00:29:01.468Z,99.9
2018-08-13T00:30:08.704Z,95.9
2018-08-13T00:31:15.946Z,93.5
2018-08-13T00:32:23.401Z,92.2
2018-08-13T00:33:30.653Z,93.3
2018-08-13T00:34:37.877Z,94.2
2018-08-13T00:35:44.564Z,76.7
2018-08-13T00:36:51.782Z,80.3
2018-08-13T00:37:59.014Z,95.8
2018-08-13T00:39:05.998Z,96.1
2018-08-13T00:40:13.225Z,97.9
2018-08-13T00:41:20.450Z,95.8
2018-08-13T00:42:27.668Z,95.6
2018-08-13T00:43:34.906Z,91.4
2018-08-13T00:44:42.157Z,95.2
2018-08-13T00:45:49.403Z,95.4
2018-08-13T00:46:56.648Z,92.8
2018-08-13T00:48:03.885Z,96.9
2018-08-13T00:49:10.836Z,95.4
2018-08-13T00:50:18.091Z,99.9
2018-08-13T00:51:25.037Z,99.7
2018-08-13T00:52:32.488Z,99.9
2018-08-13T00:53:39.706Z,98.5
2018-08-13T00:54:46.953Z,99.9
2018-08-13T00:55:54.176Z,99.9
2018-08-13T00:57:01.431Z,99.9
2018-08-13T00:58:08.667Z,99.9
2018-08-13T00:59:15.887Z,99.9
2018-08-13T01:00:23.118Z,99.9
2018-08-13T01:01:30.370Z,99.9
2018-08-13T01:02:37.609Z,99.9
2018-08-13T01:03:44.795Z,99.9
2018-08-13T01:04:52.022Z,99.9
2018-08-13T01:05:59.493Z,99.9
2018-08-13T01:07:06.721Z,99.9
2018-08-13T01:08:13.984Z,99.6
2018-08-13T01:09:21.213Z,99.9
2018-08-13T01:10:28.670Z,99.9
2018-08-13T01:11:35.894Z,99.9
2018-08-13T01:12:43.140Z,99.9
2018-08-13T01:13:50.128Z,99.9
2018-08-13T01:14:57.110Z,99.9
2018-08-13T01:16:04.344Z,99.9
2018-08-13T01:17:11.566Z,99.9
2018-08-13T01:18:18.787Z,99.9
2018-08-13T01:19:26.249Z,99.9
2018-08-13T01:20:33.492Z,99.9
2018-08-13T01:21:40.748Z,99.9
2018-08-13T01:22:47.984Z,99.9
2018-08-13T01:23:55.219Z,99.9
2018-08-13T01:25:02.464Z,99.9
2018-08-13T01:26:09.712Z,99.9
2018-08-13T01:27:16.944Z,99.9
2018-08-13T01:28:24.171Z,99.9
2018-08-13T01:29:31.421Z,99.9
2018-08-13T01:30:38.377Z,99.9
2018-08-13T01:31:45.617Z,99.9
2018-08-13T01:32:52.855Z,99.9
2018-08-13T01:34:00.086Z,99.9
2018-08-13T01:35:07.319Z,99.9
2018-08-13T01:36:14.541Z,99.9
2018-08-13T01:37:21.772Z,99.9
2018-08-13T01:38:29.003Z,99.9
2018-08-13T01:39:36.233Z,99.9
2018-08-13T01:40:43.463Z,99.9
2018-08-13T01:41:50.726Z,99.9
2018-08-13T01:42:57.950Z,99.9
2018-08-13T01:44:05.189Z,99.9
2018-08-13T01:45:12.138Z,99.9
2018-08-13T01:46:19.371Z,99.9
2018-08-13T01:47:26.600Z,99.9
2018-08-13T01:48:33.823Z,99.9
2018-08-13T01:49:41.052Z,99.9
2018-08-13T01:50:48.276Z,99.9
2018-08-13T01:51:55.498Z,99.9
2018-08-13T01:53:02.478Z,99.9
2018-08-13T01:54:09.714Z,99.9
2018-08-13T01:55:17.154Z,99.9
2018-08-13T01:56:24.613Z,99.9
2018-08-13T01:57:31.844Z,99.9
2018-08-13T01:58:39.077Z,99.9
2018-08-13T01:59:46.062Z,99.9
2018-08-13T02:00:53.300Z,99.9
2018-08-13T02:02:00.552Z,99.9
2018-08-13T02:03:07.796Z,99.9
2018-08-13T02:04:15.020Z,99.9
2018-08-13T02:05:21.963Z,99.9
2018-08-13T02:06:29.195Z,99.9
2018-08-13T02:07:36.437Z,99.9
2018-08-13T02:08:43.385Z,99.9
2018-08-13T02:09:50.613Z,99.9
2018-08-13T02:10:57.581Z,99.9
2018-08-13T02:12:05.032Z,99.9
2018-08-13T02:13:12.252Z,99.9
2018-08-13T02:14:19.205Z,99.9
2018-08-13T02:15:26.436Z,99.9
2018-08-13T02:16:33.690Z,99.9
2018-08-13T02:17:40.929Z,99.9
2018-08-13T02:18:48.395Z,99.9
2018-08-13T02:19:55.647Z,99.9
2018-08-13T02:21:02.900Z,99.9
2018-08-13T02:22:10.142Z,99.9
2018-08-13T02:23:17.609Z,99.9
2018-08-13T02:24:24.813Z,99.9
2018-08-13T02:25:32.050Z,99.9
2018-08-13T02:26:39.298Z,99.9
2018-08-13T02:27:46.742Z,99.9
2018-08-13T02:28:53.992Z,99.9
2018-08-13T02:30:01.228Z,99.9
2018-08-13T02:31:08.458Z,99.9
2018-08-13T02:32:15.701Z,99.9
2018-08-13T02:33:22.921Z,99.9
2018-08-13T02:34:30.390Z,99.9
2018-08-13T02:35:37.635Z,99.9
2018-08-13T02:36:44.874Z,99.9
2018-08-13T02:37:52.108Z,99.9
2018-08-13T02:38:59.343Z,99.9
2018-08-13T02:40:06.765Z,99.9
2018-08-13T02:41:13.991Z,99.9
2018-08-13T02:42:21.214Z,99.9
2018-08-13T02:43:28.461Z,99.9
2018-08-13T02:44:35.705Z,99.9
2018-08-13T02:45:42.928Z,99.9
2018-08-13T02:46:50.161Z,99.9
2018-08-13T02:47:57.406Z,99.9
2018-08-13T02:49:04.639Z,99.9
2018-08-13T02:50:11.866Z,99.9
2018-08-13T02:51:19.093Z,99.9
2018-08-13T02:52:26.319Z,99.9
2018-08-13T02:53:33.264Z,99.9
2018-08-13T02:54:40.510Z,99.9
2018-08-13T02:55:47.738Z,99.9
2018-08-13T02:56:54.951Z,99.9
2018-08-13T02:58:02.248Z,99.9
2018-08-13T02:59:09.248Z,99.9
2018-08-13T03:00:16.693Z,99.9
2018-08-13T03:01:23.918Z,99.9
2018-08-13T03:02:31.156Z,99.9
2018-08-13T03:03:38.382Z,99.9
2018-08-13T03:04:45.707Z,99.9
2018-08-13T03:05:53.290Z,99.9
2018-08-13T03:07:00.737Z,99.9
2018-08-13T03:08:07.979Z,99.9
2018-08-13T03:09:15.170Z,99.9
2018-08-13T03:10:22.431Z,99.9
2018-08-13T03:11:29.643Z,99.9
2018-08-13T03:12:36.859Z,99.9
2018-08-13T03:13:44.097Z,99.9
2018-08-13T03:14:51.326Z,99.9
2018-08-13T03:15:58.781Z,99.9
2018-08-13T03:17:06.022Z,99.9
2018-08-13T03:18:13.243Z,99.9
2018-08-13T03:19:20.485Z,99.9
2018-08-13T03:20:27.711Z,99.9
2018-08-13T03:21:34.941Z,99.9
2018-08-13T03:22:42.197Z,99.9
2018-08-13T03:23:49.421Z,99.9
2018-08-13T03:24:56.640Z,99.9
2018-08-13T03:26:03.872Z,99.9
2018-08-13T03:27:10.819Z,99.9
2018-08-13T03:28:18.056Z,99.9
2018-08-13T03:29:25.285Z,99.9
2018-08-13T03:30:32.251Z,99.9
2018-08-13T03:31:39.469Z,99.9
2018-08-13T03:32:46.699Z,99.9
2018-08-13T03:33:53.910Z,99.9
2018-08-13T03:35:01.137Z,99.9
2018-08-13T03:36:08.353Z,99.9
2018-08-13T03:37:15.577Z,99.9
2018-08-13T03:38:22.792Z,99.9
2018-08-13T03:39:30.012Z,99.9
2018-08-13T03:40:37.252Z,99.9
2018-08-13T03:41:44.470Z,99.9
2018-08-13T03:42:51.705Z,99.9
2018-08-13T03:43:58.653Z,99.9
2018-08-13T03:45:05.875Z,99.9
2018-08-13T03:46:13.104Z,99.9
2018-08-13T03:47:20.336Z,99.9
2018-08-13T03:48:27.778Z,99.9
2018-08-13T03:49:34.991Z,99.9
2018-08-13T03:50:41.942Z,99.9
2018-08-13T03:51:49.173Z,99.9
2018-08-13T03:52:56.418Z,99.9
2018-08-13T03:54:03.363Z,99.9
2018-08-13T03:55:10.602Z,99.9
2018-08-13T03:56:17.829Z,99.9
2018-08-13T03:57:25.046Z,99.9
2018-08-13T03:58:32.284Z,99.9
2018-08-13T03:59:39.223Z,99.9
2018-08-13T04:00:46.459Z,99.9
2018-08-13T04:01:53.405Z,99.9
2018-08-13T04:03:00.629Z,99.9
2018-08-13T04:04:07.864Z,99.9
2018-08-13T04:05:15.097Z,99.9
2018-08-13T04:06:22.041Z,99.9
2018-08-13T04:07:29.269Z,99.9
2018-08-13T04:08:36.511Z,99.9
2018-08-13T04:09:43.747Z,99.9
2018-08-13T04:10:50.686Z,99.9
2018-08-13T04:11:57.626Z,99.9
2018-08-13T04:13:04.855Z,99.9
2018-08-13T04:14:12.089Z,99.9
2018-08-13T04:15:19.303Z,99.9
2018-08-13T04:16:26.532Z,99.9
2018-08-13T04:17:33.485Z,99.9
2018-08-13T04:18:40.717Z,99.9
2018-08-13T04:19:47.939Z,99.9
2018-08-13T04:20:55.157Z,99.9
2018-08-13T04:22:02.373Z,99.9
2018-08-13T04:23:09.601Z,99.9
2018-08-13T04:24:16.823Z,99.9
2018-08-13T04:25:24.062Z,99.9
2018-08-13T04:26:31.294Z,99.9
2018-08-13T04:27:38.529Z,99.9
2018-08-13T04:28:45.487Z,99.9
2018-08-13T04:29:52.702Z,99.9
2018-08-13T04:30:59.646Z,99.9
2018-08-13T04:32:06.877Z,99.9
2018-08-13T04:33:14.101Z,99.9
2018-08-13T04:34:21.336Z,99.9
2018-08-13T04:35:28.566Z,99.9
2018-08-13T04:36:35.789Z,99.9
2018-08-13T04:37:43.019Z,99.9
2018-08-13T04:38:50.252Z,99.9
2018-08-13T04:39:57.478Z,99.9
2018-08-13T04:41:04.705Z,99.9
2018-08-13T04:42:11.951Z,99.9
2018-08-13T04:43:19.178Z,99.9
2018-08-13T04:44:26.423Z,99.9
2018-08-13T04:45:33.637Z,99.9
2018-08-13T04:46:40.854Z,99.9
2018-08-13T04:47:48.080Z,99.9
2018-08-13T04:48:55.315Z,99.9
2018-08-13T04:50:02.537Z,99.9
2018-08-13T04:51:09.775Z,99.9
2018-08-13T04:52:17.126Z,99.9
2018-08-13T04:53:24.662Z,99.9
2018-08-13T04:54:31.884Z,99.9
2018-08-13T04:55:38.840Z,99.9
2018-08-13T04:56:46.070Z,99.9
2018-08-13T04:57:53.301Z,99.9
2018-08-13T04:59:00.567Z,99.9
2018-08-13T05:00:08.222Z,99.9
2018-08-13T05:01:15.441Z,99.9
2018-08-13T05:02:22.663Z,99.9
2018-08-13T05:03:29.886Z,99.9
2018-08-13T05:04:37.104Z,99.9
2018-08-13T05:05:44.320Z,99.9
2018-08-13T05:06:51.259Z,99.9
2018-08-13T05:07:58.483Z,99.9
2018-08-13T05:09:05.710Z,99.9
2018-08-13T05:10:12.661Z,99.9
2018-08-13T05:11:19.874Z,99.9
2018-08-13T05:12:27.093Z,99.9
2018-08-13T05:13:34.311Z,99.9
2018-08-13T05:14:41.532Z,99.9
2018-08-13T05:15:48.761Z,99.9
2018-08-13T05:16:55.985Z,99.9
2018-08-13T05:18:03.205Z,99.9
2018-08-13T05:19:10.427Z,99.9
2018-08-13T05:20:17.657Z,99.9
2018-08-13T05:21:24.887Z,99.9
2018-08-13T05:22:32.107Z,99.9
2018-08-13T05:23:39.333Z,99.9
2018-08-13T05:24:46.544Z,99.9
2018-08-13T05:25:53.505Z,99.9
2018-08-13T05:27:00.728Z,99.9
2018-08-13T05:28:07.689Z,99.9
2018-08-13T05:29:14.919Z,99.9
2018-08-13T05:30:22.274Z,99.9
2018-08-13T05:31:29.749Z,99.9
2018-08-13T05:32:36.999Z,99.9
2018-08-13T05:33:44.226Z,99.9
2018-08-13T05:34:51.457Z,99.9
2018-08-13T05:35:58.686Z,99.9
2018-08-13T05:37:05.913Z,99.9
2018-08-13T05:38:13.193Z,99.9
2018-08-13T05:39:20.597Z,99.9
2018-08-13T05:40:27.819Z,99.9
2018-08-13T05:41:35.044Z,99.9
2018-08-13T05:42:42.278Z,99.9
2018-08-13T05:43:49.505Z,99.9
2018-08-13T05:44:56.183Z,99.9
2018-08-13T05:46:03.140Z,99.9
2018-08-13T05:47:10.363Z,99.9
2018-08-13T05:48:17.582Z,99.9
2018-08-13T05:49:24.811Z,99.9
2018-08-13T05:50:32.049Z,99.9
2018-08-13T05:51:39.276Z,99.9
2018-08-13T05:52:46.530Z,99.9
2018-08-13T05:53:53.500Z,99.9
2018-08-13T05:55:00.728Z,99.9
2018-08-13T05:56:07.961Z,99.9
2018-08-13T05:57:15.187Z,99.9
2018-08-13T05:58:22.402Z,99.9
2018-08-13T05:59:29.633Z,99.9
2018-08-13T06:00:36.873Z,99.9
2018-08-13T06:01:44.044Z,99.9
2018-08-13T06:02:51.051Z,99.9
2018-08-13T06:03:58.016Z,99.9
2018-08-13T06:05:05.255Z,99.9
2018-08-13T06:06:12.504Z,99.9
2018-08-13T06:07:19.744Z,99.9
2018-08-13T06:08:26.983Z,99.9
2018-08-13T06:10:56.087Z,99.9
2018-08-13T06:12:03.039Z,99.9
2018-08-13T06:13:10.269Z,99.9
2018-08-13T06:14:17.500Z,99.9
2018-08-13T06:15:24.446Z,99.9
2018-08-13T06:16:31.685Z,99.9
2018-08-13T06:17:38.921Z,99.9
2018-08-13T06:18:46.145Z,99.9
2018-08-13T06:19:53.386Z,99.9
2018-08-13T06:21:00.618Z,99.9
2018-08-13T06:22:07.866Z,99.9
2018-08-13T06:23:15.133Z,96
2018-08-13T06:24:22.442Z,94.2
2018-08-13T06:25:30.319Z,85.3
2018-08-13T06:26:37.555Z,83
2018-08-13T06:27:44.799Z,74.7
2018-08-13T06:28:52.047Z,66.2
2018-08-13T06:29:59.319Z,68.9
2018-08-13T06:31:06.328Z,72.4
2018-08-13T06:32:13.575Z,78.1
2018-08-13T06:33:20.801Z,60.2
2018-08-13T06:34:28.024Z,49.6
2018-08-13T06:35:34.980Z,51.1
2018-08-13T06:36:42.201Z,52.4
2018-08-13T06:37:49.452Z,58.6
2018-08-13T06:38:56.750Z,63.7
2018-08-13T06:40:04.005Z,68.1
2018-08-13T06:41:10.976Z,66.7
2018-08-13T06:42:18.227Z,53
2018-08-13T06:43:25.462Z,40.6
2018-08-13T06:44:32.706Z,41.8
2018-08-13T06:45:39.951Z,44.6
2018-08-13T06:46:47.200Z,45.6
2018-08-13T06:47:53.877Z,36.5
2018-08-13T06:49:01.115Z,34.7
2018-08-13T06:50:08.334Z,37.4
2018-08-13T06:51:15.578Z,28.4
2018-08-13T06:52:22.533Z,34.1
2018-08-13T06:53:29.784Z,30.7
2018-08-13T06:54:37.009Z,26.4
2018-08-13T06:55:44.289Z,23.9
2018-08-13T06:56:51.543Z,22.8
2018-08-13T06:57:58.792Z,28.6
2018-08-13T06:59:06.021Z,32.1
2018-08-13T07:00:13.007Z,29.8
2018-08-13T07:01:20.258Z,28.1
2018-08-13T07:02:27.495Z,26.9
2018-08-13T07:03:34.726Z,23.9
2018-08-13T07:04:41.977Z,24.2
2018-08-13T07:05:49.226Z,26.9
2018-08-13T07:06:56.464Z,26.4
2018-08-13T07:08:03.445Z,28.8
2018-08-13T07:09:10.788Z,27.2
2018-08-13T07:10:17.748Z,26
2018-08-13T07:11:24.713Z,25.5
2018-08-13T07:12:31.960Z,28.4
2018-08-13T07:13:38.932Z,22.4
2018-08-13T07:14:46.177Z,17.7
2018-08-13T07:15:53.427Z,15.3
2018-08-13T07:17:00.654Z,17.4
2018-08-13T07:18:07.897Z,18.4
2018-08-13T07:19:15.129Z,13.4
2018-08-13T07:20:22.090Z,15.7
2018-08-13T07:21:29.325Z,16.5
2018-08-13T07:22:36.570Z,14
2018-08-13T07:23:43.811Z,16.4
2018-08-13T07:24:51.044Z,17.2
2018-08-13T07:25:58.268Z,16.1
2018-08-13T07:27:05.502Z,14.1
2018-08-13T07:28:13.002Z,11.7
2018-08-13T07:29:20.140Z,14.6
2018-08-13T07:30:27.078Z,13.9
2018-08-13T07:31:34.327Z,11.5
2018-08-13T07:32:41.551Z,8.7
2018-08-13T07:33:48.912Z,11.8
2018-08-13T07:34:56.523Z,10.7
2018-08-13T07:36:03.762Z,12.5
2018-08-13T07:37:10.737Z,15.3
2018-08-13T07:38:18.009Z,14.8
2018-08-13T07:39:25.281Z,12
2018-08-13T07:40:33.034Z,10.2
2018-08-13T07:41:40.325Z,10.1
2018-08-13T07:42:47.565Z,10.1
2018-08-13T07:43:54.823Z,12.3
2018-08-13T07:45:02.060Z,9.4
2018-08-13T07:46:09.036Z,9.5
2018-08-13T07:47:16.284Z,11.3
2018-08-13T07:48:23.250Z,13.4
2018-08-13T07:49:30.483Z,11.8
2018-08-13T07:50:37.975Z,11.8
2018-08-13T07:51:45.310Z,11.3
2018-08-13T07:52:52.621Z,11.8
2018-08-13T07:53:59.863Z,13.5
2018-08-13T07:55:07.113Z,12.3
2018-08-13T07:56:14.358Z,14.2
2018-08-13T07:57:21.600Z,14.2
2018-08-13T07:58:28.851Z,12
2018-08-13T07:59:36.085Z,14
2018-08-13T08:00:43.317Z,12
2018-08-13T08:01:50.665Z,13.9
2018-08-13T08:02:57.902Z,14.2
2018-08-13T08:04:05.164Z,13.3
2018-08-13T08:05:12.403Z,12.7
2018-08-13T08:06:19.852Z,11.2
2018-08-13T08:07:27.088Z,13.3
2018-08-13T08:08:34.323Z,9.7
2018-08-13T08:09:41.559Z,11.5
2018-08-13T08:10:48.819Z,12.6
2018-08-13T08:11:56.097Z,12.1
2018-08-13T08:13:03.335Z,11.6
2018-08-13T08:14:10.591Z,11.2
2018-08-13T08:15:17.551Z,10.7
2018-08-13T08:16:24.507Z,10.9
2018-08-13T08:17:31.529Z,10.3
2018-08-13T08:18:38.783Z,10.6
2018-08-13T08:19:46.021Z,10.7
2018-08-13T08:20:53.257Z,11.7
2018-08-13T08:22:00.216Z,8.9
2018-08-13T08:23:07.456Z,9.1
2018-08-13T08:24:14.707Z,7.3
2018-08-13T08:25:21.669Z,8.2
2018-08-13T08:26:28.984Z,8.2
2018-08-13T08:27:36.231Z,11.3
2018-08-13T08:28:43.452Z,10.6
2018-08-13T08:29:50.703Z,9.8
2018-08-13T08:30:57.909Z,10.7
2018-08-13T08:32:05.157Z,12.8
2018-08-13T08:33:12.388Z,10.7
2018-08-13T08:34:19.629Z,12.3
2018-08-13T08:35:26.862Z,11.1
2018-08-13T08:36:34.102Z,11.5
2018-08-13T08:37:41.325Z,12.4
2018-08-13T08:38:48.271Z,13.7
2018-08-13T08:39:55.502Z,13.4
2018-08-13T08:41:02.744Z,13.2
2018-08-13T08:42:09.997Z,13
2018-08-13T08:43:17.225Z,14.3
2018-08-13T08:44:24.190Z,15.6
2018-08-13T08:45:31.452Z,14.4
2018-08-13T08:46:38.690Z,14.5
2018-08-13T08:47:45.935Z,13.4
2018-08-13T08:48:53.171Z,14.8
2018-08-13T08:50:00.130Z,15
2018-08-13T08:51:07.370Z,15.3
2018-08-13T08:52:14.602Z,13.7
2018-08-13T08:53:21.836Z,14.6
2018-08-13T08:54:28.789Z,15.8
2018-08-13T08:55:36.045Z,16.1
2018-08-13T08:56:43.290Z,14.1
2018-08-13T08:57:50.519Z,14.8
2018-08-13T08:58:57.491Z,16.9
2018-08-13T09:00:04.748Z,19.3
2018-08-13T09:01:11.978Z,16.3
2018-08-13T09:02:19.201Z,15.3
2018-08-13T09:03:26.434Z,17.4
2018-08-13T09:04:33.677Z,17.4
2018-08-13T09:05:40.913Z,19.9
2018-08-13T09:06:47.874Z,20.8
2018-08-13T09:07:55.100Z,19.1
2018-08-13T09:09:02.351Z,17.7
2018-08-13T09:10:09.578Z,18.3
2018-08-13T09:11:16.811Z,20
2018-08-13T09:12:24.037Z,16.2
2018-08-13T09:13:31.271Z,17.1
2018-08-13T09:14:38.503Z,18.3
2018-08-13T09:15:45.738Z,17.3
2018-08-13T09:16:52.956Z,17
2018-08-13T09:18:00.188Z,17.6
2018-08-13T09:19:07.453Z,17.8
2018-08-13T09:20:15.120Z,19.7
2018-08-13T09:21:22.358Z,19.9
2018-08-13T09:22:29.602Z,20.6
2018-08-13T09:23:36.834Z,20.1
2018-08-13T09:24:44.069Z,20.2
2018-08-13T09:25:51.065Z,21.9
2018-08-13T09:26:58.027Z,21.8
2018-08-13T09:28:05.286Z,21.8
2018-08-13T09:29:12.517Z,23
2018-08-13T09:30:19.742Z,22.4
2018-08-13T09:31:26.687Z,24.1
2018-08-13T09:32:33.657Z,23.6
2018-08-13T09:33:40.878Z,23.9
2018-08-13T09:34:48.115Z,24.2
2018-08-13T09:35:55.349Z,23.6
2018-08-13T09:37:02.303Z,24.3
2018-08-13T09:38:09.566Z,23.7
2018-08-13T09:39:16.786Z,24
2018-08-13T09:40:23.747Z,24.4
2018-08-13T09:41:30.976Z,24.1
2018-08-13T09:42:38.207Z,24.1
2018-08-13T09:43:45.442Z,24.3
2018-08-13T09:44:52.418Z,24.8
2018-08-13T09:45:59.653Z,24.4
2018-08-13T09:47:06.345Z,25.4
2018-08-13T09:48:13.673Z,25.3
2018-08-13T09:49:21.237Z,25.4
2018-08-13T09:50:28.223Z,24.7
2018-08-13T09:51:35.453Z,27
2018-08-13T09:52:42.690Z,26.6
2018-08-13T09:53:50.011Z,26.9
2018-08-13T09:54:57.665Z,25.5
2018-08-13T09:56:04.909Z,26.2
2018-08-13T09:57:12.148Z,25.8
2018-08-13T09:58:19.380Z,27.3
2018-08-13T09:59:26.616Z,24.3
2018-08-13T10:00:33.860Z,25.8
2018-08-13T10:01:41.089Z,25.7
2018-08-13T10:02:48.320Z,25.7
2018-08-13T10:03:55.272Z,25
2018-08-13T10:05:02.504Z,25.6
2018-08-13T10:06:09.748Z,25.4
2018-08-13T10:07:17.016Z,26.8
2018-08-13T10:08:24.253Z,26.1
2018-08-13T10:09:30.973Z,25.2
2018-08-13T10:10:38.216Z,27.9
2018-08-13T10:11:45.458Z,26
2018-08-13T10:12:52.696Z,26.4
2018-08-13T10:13:59.922Z,27.5
2018-08-13T10:15:07.169Z,29.4
2018-08-13T10:16:14.399Z,33.6
2018-08-13T10:17:21.395Z,42.8
2018-08-13T10:18:28.346Z,46.8
2018-08-13T10:19:35.329Z,56.5
2018-08-13T10:20:42.558Z,62.7
2018-08-13T10:21:49.791Z,75
2018-08-13T10:22:57.026Z,83.9
2018-08-13T10:24:04.264Z,62.1
2018-08-13T10:25:11.224Z,65.8
2018-08-13T10:26:18.466Z,64.6
2018-08-13T10:27:25.694Z,73
2018-08-13T10:28:32.933Z,68.4
2018-08-13T10:29:39.924Z,74.1
2018-08-13T10:30:46.654Z,79.3
2018-08-13T10:31:53.895Z,89.7
2018-08-13T10:33:01.126Z,93.9
2018-08-13T10:34:08.363Z,85.8
2018-08-13T10:35:15.068Z,85.5
2018-08-13T10:36:22.296Z,93.6
2018-08-13T10:37:29.314Z,89.1
2018-08-13T10:38:36.933Z,90.3
2018-08-13T10:40:03.050Z,82
2018-08-13T10:41:09.999Z,84.5
2018-08-13T10:42:17.229Z,92.6
2018-08-13T10:43:24.230Z,83.2
2018-08-13T10:44:31.604Z,91.1
2018-08-13T10:45:38.828Z,93.8
2018-08-13T10:46:46.070Z,99.9
2018-08-13T10:47:53.314Z,99.9
2018-08-13T10:49:00.555Z,94.5
2018-08-13T10:50:07.785Z,99.1
2018-08-13T10:51:15.021Z,98.3
2018-08-13T10:52:22.245Z,99.9
2018-08-13T10:53:28.939Z,99.9
2018-08-13T10:54:35.889Z,99.9
2018-08-13T10:55:43.112Z,99.9
2018-08-13T10:56:50.072Z,99.9
2018-08-13T10:57:57.303Z,99.9
2018-08-13T10:59:04.532Z,99.9
2018-08-13T11:00:11.760Z,99.9
2018-08-13T11:01:19.045Z,99.9
2018-08-13T11:02:26.302Z,99.9
2018-08-13T11:03:33.518Z,99.9
2018-08-13T11:04:40.751Z,99.9
2018-08-13T11:05:47.985Z,99.9
2018-08-13T11:06:55.225Z,99.9
2018-08-13T11:08:02.530Z,99.9
2018-08-13T11:09:09.850Z,99.9
2018-08-13T11:10:17.137Z,99.9
2018-08-13T11:11:24.532Z,99.9
2018-08-13T11:12:31.498Z,99.9
2018-08-13T11:13:38.756Z,99.9
2018-08-13T11:14:46.003Z,99.9
2018-08-13T11:15:53.230Z,99.9
2018-08-13T11:17:00.468Z,99.9
2018-08-13T11:18:07.696Z,99.9
2018-08-13T11:19:14.941Z,99.9
2018-08-13T11:20:21.913Z,99.9
2018-08-13T11:21:28.867Z,99.9
2018-08-13T11:22:36.200Z,99.9
2018-08-13T11:23:43.462Z,99.9
2018-08-13T11:24:50.494Z,99.9
2018-08-13T11:25:57.727Z,99.9
2018-08-13T11:27:04.953Z,99.9
2018-08-13T11:28:12.195Z,99.9
2018-08-13T11:29:19.439Z,99.9
2018-08-13T11:30:26.667Z,99.9
2018-08-13T11:31:33.904Z,99.9
2018-08-13T11:32:40.864Z,99.9
2018-08-13T11:33:47.841Z,99.9
2018-08-13T11:34:55.187Z,99.9
2018-08-13T11:36:02.947Z,99.9
2018-08-13T11:37:10.184Z,99.9
2018-08-13T11:38:17.411Z,99.9
2018-08-13T11:39:24.639Z,99.9
2018-08-13T11:40:31.928Z,99.9
2018-08-13T11:41:39.252Z,99.9
2018-08-13T11:42:46.479Z,99.9
2018-08-13T11:43:53.431Z,99.9
2018-08-13T11:45:00.692Z,99.9
2018-08-13T11:46:07.911Z,99.9
2018-08-13T11:47:15.164Z,99.9
2018-08-13T11:48:22.394Z,99.9
2018-08-13T11:49:29.637Z,99.9
2018-08-13T11:50:36.878Z,99.9
2018-08-13T11:51:44.104Z,99.9
2018-08-13T11:52:51.336Z,99.9
2018-08-13T11:53:58.583Z,99.9
2018-08-13T11:55:05.827Z,99.9
2018-08-13T11:56:13.087Z,99.9
2018-08-13T11:57:20.034Z,99.9
2018-08-13T11:58:27.277Z,99.9
2018-08-13T11:59:34.501Z,99.9
2018-08-13T12:00:41.735Z,99.9
2018-08-13T12:01:48.968Z,99.9
2018-08-13T12:02:56.202Z,99.9
2018-08-13T12:04:03.440Z,99.9
2018-08-13T12:05:10.664Z,99.9
2018-08-13T12:06:17.900Z,99.9
2018-08-13T12:07:25.131Z,99.9
2018-08-13T12:08:32.152Z,99.9
2018-08-13T12:09:39.774Z,99.9
2018-08-13T12:10:47.019Z,99.9
2018-08-13T12:11:54.263Z,99.9
2018-08-13T12:13:01.500Z,99.9
2018-08-13T12:14:08.826Z,99.9
2018-08-13T12:15:16.406Z,99.9
2018-08-13T12:16:23.649Z,99.9
2018-08-13T12:17:30.877Z,99.9
2018-08-13T12:18:38.104Z,99.9
2018-08-13T12:19:45.328Z,99.9
2018-08-13T12:20:52.564Z,99.9
2018-08-13T12:21:59.791Z,99.9
2018-08-13T12:23:06.747Z,99.9
2018-08-13T12:24:13.988Z,99.9
2018-08-13T12:25:20.945Z,99.9
2018-08-13T12:26:28.239Z,99.9
2018-08-13T12:27:35.799Z,99.9
2018-08-13T12:28:43.028Z,99.9
2018-08-13T12:29:50.266Z,99.9
2018-08-13T12:30:57.507Z,99.9
2018-08-13T12:32:04.734Z,99.9
2018-08-13T12:33:11.969Z,99.9
2018-08-13T12:34:18.933Z,99.9
2018-08-13T12:35:26.168Z,99.9
2018-08-13T12:36:33.400Z,99.9
2018-08-13T12:37:40.631Z,99.9
2018-08-13T12:38:47.865Z,99.9
2018-08-13T12:39:55.099Z,99.9
2018-08-13T12:41:01.848Z,99.9
2018-08-13T12:42:09.392Z,99.9
2018-08-13T12:43:16.654Z,99.9
2018-08-13T12:44:23.888Z,99.9
2018-08-13T12:45:31.128Z,99.9
2018-08-13T12:46:37.795Z,99.9
2018-08-13T12:47:45.026Z,99.9
2018-08-13T12:48:52.263Z,99.9
2018-08-13T12:49:59.494Z,99.9
2018-08-13T12:51:06.825Z,99.9
2018-08-13T12:52:14.388Z,99.9
2018-08-13T12:53:21.358Z,99.9
2018-08-13T12:54:28.606Z,99.2
2018-08-13T12:55:35.836Z,99.1
2018-08-13T12:56:43.066Z,97.1
2018-08-13T12:57:50.024Z,99.6
2018-08-13T12:58:57.246Z,96
2018-08-13T13:00:03.929Z,98.3
2018-08-13T13:01:11.174Z,99.9
2018-08-13T13:02:18.397Z,99.9
2018-08-13T13:03:25.631Z,99
2018-08-13T13:04:32.596Z,98.9
2018-08-13T13:05:39.844Z,97.1
2018-08-13T13:06:47.068Z,99.3
2018-08-13T13:07:54.318Z,99.7
2018-08-13T13:09:01.293Z,99.9
2018-08-13T13:10:08.868Z,98.3
2018-08-13T13:11:16.099Z,97.9
2018-08-13T13:12:22.776Z,99.9
2018-08-13T13:13:30.012Z,99.9
2018-08-13T13:14:36.983Z,99.3
2018-08-13T13:15:44.250Z,99.3
2018-08-13T13:16:51.473Z,99.9
2018-08-13T13:17:58.723Z,99.9
2018-08-13T13:19:05.934Z,99.9
2018-08-13T13:20:13.159Z,99.2
2018-08-13T13:21:20.390Z,99.8
2018-08-13T13:22:27.630Z,97.3
2018-08-13T13:23:34.591Z,98.8
2018-08-13T13:26:03.588Z,97.4
2018-08-13T13:27:11.082Z,98.8
2018-08-13T13:28:18.313Z,99.6
2018-08-13T13:29:25.547Z,99.9
2018-08-13T13:30:32.493Z,99.9
2018-08-13T13:31:39.726Z,99.7
2018-08-13T13:32:46.701Z,99.9
2018-08-13T13:35:15.573Z,99.9
2018-08-13T13:36:22.810Z,99.9
2018-08-13T13:37:30.042Z,99.9
2018-08-13T13:38:37.272Z,99.9
2018-08-13T13:39:44.495Z,99.9
2018-08-13T13:40:51.727Z,99.9
2018-08-13T13:41:59.640Z,99.9
2018-08-13T13:43:06.884Z,99.9
2018-08-13T13:44:14.123Z,99.9
2018-08-13T13:45:21.103Z,99.9
2018-08-13T13:46:28.057Z,99.9
2018-08-13T13:47:35.292Z,99.9
2018-08-13T13:48:42.268Z,99.9
2018-08-13T13:49:49.225Z,99.9
2018-08-13T13:50:56.461Z,99.9
2018-08-13T13:53:25.602Z,99.9
2018-08-13T13:54:32.834Z,99.9
2018-08-13T13:55:39.785Z,99.9
2018-08-13T13:56:46.749Z,99.9
2018-08-13T13:57:53.975Z,99.9
2018-08-13T13:59:01.206Z,99.9
2018-08-13T14:00:08.192Z,99.9
2018-08-13T14:01:15.143Z,99.9
2018-08-13T14:02:22.378Z,99.9
2018-08-13T14:03:29.607Z,99.9
2018-08-13T14:04:36.838Z,99.9
2018-08-13T14:05:43.803Z,99.9
2018-08-13T14:06:51.044Z,99.9
2018-08-13T14:07:58.272Z,99.9
2018-08-13T14:09:05.501Z,99.9
2018-08-13T14:10:12.723Z,99.9
2018-08-13T14:11:19.958Z,99.9
2018-08-13T14:12:27.193Z,99.9
2018-08-13T14:13:34.155Z,99.9
2018-08-13T14:14:41.094Z,99.9
2018-08-13T14:15:48.316Z,99.9
2018-08-13T14:16:55.547Z,99.9
2018-08-13T14:18:02.778Z,99.9
2018-08-13T14:19:09.722Z,99.9
2018-08-13T14:20:16.955Z,99.9
2018-08-13T14:21:24.193Z,99.9
2018-08-13T14:22:31.437Z,99.9
2018-08-13T14:23:38.679Z,99.9
2018-08-13T14:24:45.918Z,99.9
2018-08-13T14:25:53.157Z,99.9
2018-08-13T14:27:00.391Z,99.9
2018-08-13T14:28:07.506Z,99.9
2018-08-13T14:29:14.780Z,99.9
2018-08-13T14:30:22.018Z,99.9
2018-08-13T14:31:29.266Z,99.9
2018-08-13T14:32:36.518Z,99.9
2018-08-13T14:33:43.753Z,99.9
2018-08-13T14:34:51.085Z,99.9
2018-08-13T14:35:58.733Z,99.9
2018-08-13T14:37:05.958Z,99.9
2018-08-13T14:38:13.197Z,99.9
2018-08-13T14:39:20.424Z,99.9
2018-08-13T14:40:27.666Z,99.9
2018-08-13T14:41:34.907Z,99.9
2018-08-13T14:42:42.146Z,99.9
2018-08-13T14:43:49.386Z,99.9
2018-08-13T14:44:56.623Z,99.9
2018-08-13T14:46:03.857Z,99.9
2018-08-13T14:47:10.814Z,99.9
2018-08-13T14:48:18.047Z,98.7
2018-08-13T14:49:25.277Z,97.3
2018-08-13T14:50:32.504Z,96.8
2018-08-13T14:51:39.743Z,95.6
2018-08-13T14:52:46.971Z,97.5
2018-08-13T14:53:53.945Z,98
2018-08-13T14:55:01.191Z,97.4
2018-08-13T14:56:08.398Z,97
2018-08-13T14:57:15.625Z,99
2018-08-13T14:58:22.864Z,98.1
2018-08-13T14:59:30.105Z,97.4
2018-08-13T15:00:37.050Z,97.4
2018-08-13T15:01:44.290Z,97.4
2018-08-13T15:02:51.268Z,95.5